Humidity-temperature Sensor

Selected Measurement Type: Air Temperature

 
Air Temperature [°C]     6 entries per hour
Showing data from 8/30/2018 (00:00:00 Z) to 8/27/2018 (00:01:00 Z)
Previous Next [ Day | 3-Days | 7-Days ]
First Last
Prev [ Day | 3-Days | 7-Days ] Next
First Last

Start Time:     :
End Time:     :     
Time (in GMT) :00 :50 :40 :30 :20 :10
Previous Next [ Day | 3-Days | 7-Days ]
First Last
Prev [ Day | 3-Days | 7-Days ] Next
First Last


123 => good data
MM => data is determined as missing
-- => data not received/configured
Back to Top Back to Top
8/30/2018 00:00 to 23:10 29.06 29.00 29.02 29.04 29.19 29.00
8/29/2018 23:00 to 22:10 29.14 29.03 29.14 28.99 29.04 28.93
8/29/2018 22:00 to 21:10 29.12 29.10 29.05 29.03 29.10 29.16
8/29/2018 21:00 to 20:10 29.15 29.16 29.05 29.07 29.09 28.96
8/29/2018 20:00 to 19:10 28.87 28.75 28.70 28.55 28.60 28.44
8/29/2018 19:00 to 18:10 28.57 28.66 28.38 28.30 28.27 28.65
8/29/2018 18:00 to 17:10 28.47 28.35 28.35 28.20 27.99 28.10
8/29/2018 17:00 to 16:10 28.36 28.37 28.33 28.36 28.29 28.24
8/29/2018 16:00 to 15:10 28.17 28.28 28.29 28.50 28.29 28.29
8/29/2018 15:00 to 14:10 28.43 28.24 28.15 28.15 28.09 28.22
8/29/2018 14:00 to 13:10 28.40 28.39 28.41 28.36 28.45 28.45
8/29/2018 13:00 to 12:10 28.49 28.51 28.49 28.48 28.61 28.53
8/29/2018 12:00 to 11:10 28.55 28.55 28.55 28.55 28.49 28.54
8/29/2018 11:00 to 10:10 28.53 28.59 28.57 28.64 28.61 28.63
8/29/2018 10:00 to 9:10 28.60 28.56 28.59 28.56 28.55 28.51
8/29/2018 09:00 to 8:10 28.52 28.54 28.48 28.51 28.45 28.43
8/29/2018 08:00 to 7:10 28.41 28.34 28.33 28.41 28.58 28.60
8/29/2018 07:00 to 6:10 28.57 28.53 28.49 28.47 28.40 28.49
8/29/2018 06:00 to 5:10 28.39 28.29 28.35 28.74 28.97 29.31
8/29/2018 05:00 to 4:10 29.56 29.49 29.55 29.44 29.33 29.29
8/29/2018 04:00 to 3:10 29.21 28.70 28.43 28.04 27.86 28.01
8/29/2018 03:00 to 2:10 28.70 29.02 29.35 29.37 29.33 29.23
8/29/2018 02:00 to 1:10 29.10 29.03 29.05 28.96 28.94 28.94
8/29/2018 01:00 to 0:10 28.99 28.80 28.81 28.83 28.80 28.82
8/29/2018 00:00 to 23:10 28.82 28.84 28.76 28.83 28.71 28.77
8/28/2018 23:00 to 22:10 28.74 28.67 28.74 28.73 28.69 28.64
8/28/2018 22:00 to 21:10 28.62 28.69 28.61 28.74 28.70 28.66
8/28/2018 21:00 to 20:10 28.66 28.71 28.65 28.63 28.71 28.65
8/28/2018 20:00 to 19:10 28.66 28.80 28.75 28.68 28.61 28.59
8/28/2018 19:00 to 18:10 28.64 28.52 28.68 28.73 28.45 28.40
8/28/2018 18:00 to 17:10 28.60 28.56 28.40 28.21 28.24 28.23
8/28/2018 17:00 to 16:10 28.26 28.28 28.26 28.30 28.29 28.29
8/28/2018 16:00 to 15:10 28.28 28.32 28.32 28.26 28.24 28.19
8/28/2018 15:00 to 14:10 28.12 28.12 28.07 28.07 27.90 27.63
8/28/2018 14:00 to 13:10 27.60 27.50 27.38 27.09 27.07 26.92
8/28/2018 13:00 to 12:10 26.98 26.86 26.94 26.82 26.58 26.51
8/28/2018 12:00 to 11:10 26.73 26.35 26.39 26.36 26.47 26.40
8/28/2018 11:00 to 10:10 26.78 27.94 27.93 27.92 27.84 27.84
8/28/2018 10:00 to 9:10 27.77 27.76 27.74 27.93 28.03 28.27
8/28/2018 09:00 to 8:10 28.20 28.14 28.12 28.17 28.10 28.03
8/28/2018 08:00 to 7:10 27.90 27.64 27.55 27.45 27.57 27.59
8/28/2018 07:00 to 6:10 27.69 27.51 27.02 26.05 25.82 26.06
8/28/2018 06:00 to 5:10 26.37 26.61 26.76 27.36 28.19 28.10
8/28/2018 05:00 to 4:10 28.11 28.05 28.07 27.70 27.48 27.72
8/28/2018 04:00 to 3:10 27.90 27.98 27.99 28.32 28.26 28.18
8/28/2018 03:00 to 2:10 28.28 28.20 28.32 28.34 28.32 28.30
8/28/2018 02:00 to 1:10 28.26 28.30 28.28 28.26 28.24 28.27
8/28/2018 01:00 to 0:10 28.26 28.31 28.31 28.30 28.30 28.37
8/28/2018 00:00 to 23:10 28.36 28.32 28.33 28.31 28.16 28.11
8/27/2018 23:00 to 22:10 28.05 27.93 27.89 27.89 27.88 28.00
8/27/2018 22:00 to 21:10 27.86 27.74 27.89 27.59 27.33 27.14
8/27/2018 21:00 to 20:10 27.03 27.10 26.95 26.91 26.96 27.30
8/27/2018 20:00 to 19:10 27.41 27.55 27.53 27.56 27.47 27.40
8/27/2018 19:00 to 18:10 27.41 27.56 27.64 27.61 27.59 27.32
8/27/2018 18:00 to 17:10 27.12 26.93 26.99 27.32 27.72 27.47
8/27/2018 17:00 to 16:10 27.34 27.33 27.96 27.91 27.87 27.95
8/27/2018 16:00 to 15:10 27.86 27.77 27.63 27.65 27.73 27.57
8/27/2018 15:00 to 14:10 27.51 27.46 27.92 28.22 28.14 28.12
8/27/2018 14:00 to 13:10 28.11 28.10 28.10 28.17 28.10 28.20
8/27/2018 13:00 to 12:10 28.14 28.14 28.19 28.12 28.15 28.06
8/27/2018 12:00 to 11:10 28.03 28.37 28.40 28.35 28.38 28.40
8/27/2018 11:00 to 10:10 28.45 28.47 28.38 28.39 28.40 28.38
8/27/2018 10:00 to 9:10 28.26 28.30 28.26 28.22 28.14 28.10
8/27/2018 09:00 to 8:10 28.09 28.08 28.08 28.08 28.06 28.04
8/27/2018 08:00 to 7:10 28.02 28.03 28.03 27.97 28.02 28.01
8/27/2018 07:00 to 6:10 28.01 27.98 27.99 27.97 27.96 27.90
8/27/2018 06:00 to 5:10 27.87 27.86 27.82 27.83 27.87 27.83
8/27/2018 05:00 to 4:10 27.77 27.81 27.83 27.83 27.77 27.74
8/27/2018 04:00 to 3:10 27.77 27.63 27.65 27.62 27.62 27.73
8/27/2018 03:00 to 2:10 27.63 27.60 27.58 27.65 27.61 27.59
8/27/2018 02:00 to 1:10 27.55 27.48 27.48 27.46 27.40 27.41
8/27/2018 01:00 to 0:10 27.54 27.40 27.36 27.22 27.24 27.23